sensor_id;sensor_type;location;lat;lon;timestamp;P1;durP1;ratioP1;P2;durP2;ratioP2
4051;SDS011;2040;50.924;11.604;2023-11-19T00:01:55;2.70;;;1.10;;
4051;SDS011;2040;50.924;11.604;2023-11-19T00:04:21;1.00;;;0.90;;
4051;SDS011;2040;50.924;11.604;2023-11-19T00:06:47;0.80;;;0.80;;
4051;SDS011;2040;50.924;11.604;2023-11-19T00:09:13;0.80;;;0.80;;
4051;SDS011;2040;50.924;11.604;2023-11-19T00:11:41;1.60;;;1.00;;
4051;SDS011;2040;50.924;11.604;2023-11-19T00:14:07;1.40;;;1.00;;
4051;SDS011;2040;50.924;11.604;2023-11-19T00:16:33;0.90;;;0.90;;
4051;SDS011;2040;50.924;11.604;2023-11-19T00:18:59;3.47;;;1.00;;
4051;SDS011;2040;50.924;11.604;2023-11-19T00:21:25;1.30;;;1.20;;
4051;SDS011;2040;50.924;11.604;2023-11-19T00:23:53;1.00;;;0.80;;
4051;SDS011;2040;50.924;11.604;2023-11-19T00:26:19;0.70;;;0.70;;
4051;SDS011;2040;50.924;11.604;2023-11-19T00:28:45;0.70;;;0.70;;
4051;SDS011;2040;50.924;11.604;2023-11-19T00:31:12;1.67;;;0.90;;
4051;SDS011;2040;50.924;11.604;2023-11-19T00:33:38;0.90;;;0.80;;
4051;SDS011;2040;50.924;11.604;2023-11-19T00:36:04;1.17;;;0.70;;
4051;SDS011;2040;50.924;11.604;2023-11-19T00:38:30;1.50;;;1.07;;
4051;SDS011;2040;50.924;11.604;2023-11-19T00:40:56;0.97;;;0.93;;
4051;SDS011;2040;50.924;11.604;2023-11-19T00:43:21;0.70;;;0.60;;
4051;SDS011;2040;50.924;11.604;2023-11-19T00:45:47;0.60;;;0.53;;
4051;SDS011;2040;50.924;11.604;2023-11-19T00:48:15;1.10;;;1.00;;
4051;SDS011;2040;50.924;11.604;2023-11-19T00:50:42;0.70;;;0.70;;
4051;SDS011;2040;50.924;11.604;2023-11-19T00:53:09;1.13;;;0.80;;
4051;SDS011;2040;50.924;11.604;2023-11-19T00:55:35;1.13;;;0.80;;
4051;SDS011;2040;50.924;11.604;2023-11-19T00:58:00;0.57;;;0.57;;
4051;SDS011;2040;50.924;11.604;2023-11-19T01:00:26;0.50;;;0.50;;
4051;SDS011;2040;50.924;11.604;2023-11-19T01:02:52;1.60;;;0.80;;
4051;SDS011;2040;50.924;11.604;2023-11-19T01:05:18;0.70;;;0.70;;
4051;SDS011;2040;50.924;11.604;2023-11-19T01:07:47;1.70;;;0.73;;
4051;SDS011;2040;50.924;11.604;2023-11-19T01:10:16;0.80;;;0.67;;
4051;SDS011;2040;50.924;11.604;2023-11-19T01:12:43;0.63;;;0.53;;
4051;SDS011;2040;50.924;11.604;2023-11-19T01:15:09;0.40;;;0.40;;
4051;SDS011;2040;50.924;11.604;2023-11-19T01:17:36;0.50;;;0.50;;
4051;SDS011;2040;50.924;11.604;2023-11-19T01:20:02;0.80;;;0.80;;
4051;SDS011;2040;50.924;11.604;2023-11-19T01:22:31;0.60;;;0.60;;
4051;SDS011;2040;50.924;11.604;2023-11-19T01:24:56;1.37;;;0.80;;
4051;SDS011;2040;50.924;11.604;2023-11-19T01:27:23;0.60;;;0.60;;
4051;SDS011;2040;50.924;11.604;2023-11-19T01:29:49;1.00;;;0.60;;
4051;SDS011;2040;50.924;11.604;2023-11-19T01:32:15;0.50;;;0.50;;
4051;SDS011;2040;50.924;11.604;2023-11-19T01:34:40;0.50;;;0.50;;
4051;SDS011;2040;50.924;11.604;2023-11-19T01:37:06;0.70;;;0.70;;
4051;SDS011;2040;50.924;11.604;2023-11-19T01:39:34;1.53;;;0.50;;
4051;SDS011;2040;50.924;11.604;2023-11-19T01:41:59;4.50;;;0.57;;
4051;SDS011;2040;50.924;11.604;2023-11-19T01:44:25;0.90;;;0.70;;
4051;SDS011;2040;50.924;11.604;2023-11-19T01:46:51;0.70;;;0.70;;
4051;SDS011;2040;50.924;11.604;2023-11-19T01:49:17;0.40;;;0.40;;
4051;SDS011;2040;50.924;11.604;2023-11-19T01:51:45;0.60;;;0.50;;
4051;SDS011;2040;50.924;11.604;2023-11-19T01:54:12;7.67;;;0.70;;
4051;SDS011;2040;50.924;11.604;2023-11-19T01:56:38;0.43;;;0.43;;
4051;SDS011;2040;50.924;11.604;2023-11-19T01:59:05;0.50;;;0.50;;
4051;SDS011;2040;50.924;11.604;2023-11-19T02:01:34;0.70;;;0.60;;
4051;SDS011;2040;50.924;11.604;2023-11-19T02:04:04;1.67;;;0.67;;
4051;SDS011;2040;50.924;11.604;2023-11-19T02:06:34;0.53;;;0.53;;
4051;SDS011;2040;50.924;11.604;2023-11-19T02:09:02;0.80;;;0.70;;
4051;SDS011;2040;50.924;11.604;2023-11-19T02:11:32;0.80;;;0.63;;
4051;SDS011;2040;50.924;11.604;2023-11-19T02:13:59;0.60;;;0.60;;
4051;SDS011;2040;50.924;11.604;2023-11-19T02:16:25;0.80;;;0.80;;
4051;SDS011;2040;50.924;11.604;2023-11-19T02:18:51;0.73;;;0.60;;
4051;SDS011;2040;50.924;11.604;2023-11-19T02:21:16;1.43;;;0.63;;
4051;SDS011;2040;50.924;11.604;2023-11-19T02:23:43;0.60;;;0.60;;
4051;SDS011;2040;50.924;11.604;2023-11-19T02:28:34;0.67;;;0.67;;
4051;SDS011;2040;50.924;11.604;2023-11-19T02:31:02;0.97;;;0.87;;
4051;SDS011;2040;50.924;11.604;2023-11-19T02:33:29;0.50;;;0.50;;
4051;SDS011;2040;50.924;11.604;2023-11-19T02:35:55;3.70;;;0.83;;
4051;SDS011;2040;50.924;11.604;2023-11-19T02:38:21;1.60;;;0.80;;
4051;SDS011;2040;50.924;11.604;2023-11-19T02:40:47;0.73;;;0.63;;
4051;SDS011;2040;50.924;11.604;2023-11-19T02:43:13;0.73;;;0.73;;
4051;SDS011;2040;50.924;11.604;2023-11-19T02:45:38;1.07;;;0.80;;
4051;SDS011;2040;50.924;11.604;2023-11-19T02:48:04;0.60;;;0.60;;
4051;SDS011;2040;50.924;11.604;2023-11-19T02:50:31;0.60;;;0.60;;
4051;SDS011;2040;50.924;11.604;2023-11-19T02:52:57;0.60;;;0.60;;
4051;SDS011;2040;50.924;11.604;2023-11-19T02:55:22;0.60;;;0.60;;
4051;SDS011;2040;50.924;11.604;2023-11-19T02:57:49;0.90;;;0.63;;
4051;SDS011;2040;50.924;11.604;2023-11-19T03:00:15;0.80;;;0.60;;
4051;SDS011;2040;50.924;11.604;2023-11-19T03:02:49;2.30;;;0.80;;
4051;SDS011;2040;50.924;11.604;2023-11-19T03:05:24;0.70;;;0.70;;
4051;SDS011;2040;50.924;11.604;2023-11-19T03:07:51;0.90;;;0.70;;
4051;SDS011;2040;50.924;11.604;2023-11-19T03:10:17;2.37;;;0.50;;
4051;SDS011;2040;50.924;11.604;2023-11-19T03:12:43;0.60;;;0.60;;
4051;SDS011;2040;50.924;11.604;2023-11-19T03:15:10;0.50;;;0.50;;
4051;SDS011;2040;50.924;11.604;2023-11-19T03:17:39;0.47;;;0.47;;
4051;SDS011;2040;50.924;11.604;2023-11-19T03:20:06;1.30;;;0.70;;
4051;SDS011;2040;50.924;11.604;2023-11-19T03:22:35;2.83;;;0.70;;
4051;SDS011;2040;50.924;11.604;2023-11-19T03:25:02;0.90;;;0.60;;
4051;SDS011;2040;50.924;11.604;2023-11-19T03:27:27;0.60;;;0.60;;
4051;SDS011;2040;50.924;11.604;2023-11-19T03:29:53;0.93;;;0.70;;
4051;SDS011;2040;50.924;11.604;2023-11-19T03:32:18;0.53;;;0.53;;
4051;SDS011;2040;50.924;11.604;2023-11-19T03:34:44;1.17;;;0.60;;
4051;SDS011;2040;50.924;11.604;2023-11-19T03:37:10;0.60;;;0.50;;
4051;SDS011;2040;50.924;11.604;2023-11-19T03:39:36;0.60;;;0.60;;
4051;SDS011;2040;50.924;11.604;2023-11-19T03:42:02;0.70;;;0.50;;
4051;SDS011;2040;50.924;11.604;2023-11-19T03:44:28;0.60;;;0.60;;
4051;SDS011;2040;50.924;11.604;2023-11-19T03:46:54;0.80;;;0.57;;
4051;SDS011;2040;50.924;11.604;2023-11-19T03:49:19;1.10;;;0.50;;
4051;SDS011;2040;50.924;11.604;2023-11-19T03:51:45;0.50;;;0.50;;
4051;SDS011;2040;50.924;11.604;2023-11-19T03:54:11;0.60;;;0.60;;
4051;SDS011;2040;50.924;11.604;2023-11-19T03:56:36;0.50;;;0.50;;
4051;SDS011;2040;50.924;11.604;2023-11-19T03:59:02;0.80;;;0.60;;
4051;SDS011;2040;50.924;11.604;2023-11-19T04:01:28;0.53;;;0.53;;
4051;SDS011;2040;50.924;11.604;2023-11-19T04:03:53;0.50;;;0.50;;
4051;SDS011;2040;50.924;11.604;2023-11-19T04:06:20;0.70;;;0.60;;
4051;SDS011;2040;50.924;11.604;2023-11-19T04:08:46;0.50;;;0.50;;
4051;SDS011;2040;50.924;11.604;2023-11-19T04:11:12;0.53;;;0.50;;
4051;SDS011;2040;50.924;11.604;2023-11-19T04:13:37;0.50;;;0.50;;
4051;SDS011;2040;50.924;11.604;2023-11-19T04:16:03;1.00;;;0.60;;
4051;SDS011;2040;50.924;11.604;2023-11-19T04:18:29;0.60;;;0.60;;
4051;SDS011;2040;50.924;11.604;2023-11-19T04:20:57;0.53;;;0.53;;
4051;SDS011;2040;50.924;11.604;2023-11-19T04:23:22;0.60;;;0.60;;
4051;SDS011;2040;50.924;11.604;2023-11-19T04:25:49;0.73;;;0.53;;
4051;SDS011;2040;50.924;11.604;2023-11-19T04:28:15;1.10;;;0.70;;
4051;SDS011;2040;50.924;11.604;2023-11-19T04:30:41;1.07;;;0.70;;
4051;SDS011;2040;50.924;11.604;2023-11-19T04:33:06;0.60;;;0.60;;
4051;SDS011;2040;50.924;11.604;2023-11-19T04:35:32;0.50;;;0.50;;
4051;SDS011;2040;50.924;11.604;2023-11-19T04:37:57;0.60;;;0.60;;
4051;SDS011;2040;50.924;11.604;2023-11-19T04:40:23;0.50;;;0.50;;
4051;SDS011;2040;50.924;11.604;2023-11-19T04:42:49;0.60;;;0.60;;
4051;SDS011;2040;50.924;11.604;2023-11-19T04:45:14;0.50;;;0.50;;
4051;SDS011;2040;50.924;11.604;2023-11-19T04:47:41;0.60;;;0.60;;
4051;SDS011;2040;50.924;11.604;2023-11-19T04:50:07;0.50;;;0.50;;
4051;SDS011;2040;50.924;11.604;2023-11-19T04:52:37;0.50;;;0.50;;
4051;SDS011;2040;50.924;11.604;2023-11-19T04:55:05;0.60;;;0.60;;
4051;SDS011;2040;50.924;11.604;2023-11-19T04:57:31;0.60;;;0.60;;
4051;SDS011;2040;50.924;11.604;2023-11-19T04:59:57;0.57;;;0.50;;
4051;SDS011;2040;50.924;11.604;2023-11-19T05:02:23;0.50;;;0.50;;
4051;SDS011;2040;50.924;11.604;2023-11-19T05:04:49;0.90;;;0.40;;
4051;SDS011;2040;50.924;11.604;2023-11-19T05:07:15;0.80;;;0.70;;
4051;SDS011;2040;50.924;11.604;2023-11-19T05:09:40;0.47;;;0.47;;
4051;SDS011;2040;50.924;11.604;2023-11-19T05:12:08;0.53;;;0.47;;
4051;SDS011;2040;50.924;11.604;2023-11-19T05:14:37;0.80;;;0.70;;
4051;SDS011;2040;50.924;11.604;2023-11-19T05:17:02;0.47;;;0.47;;
4051;SDS011;2040;50.924;11.604;2023-11-19T05:19:28;0.40;;;0.40;;
4051;SDS011;2040;50.924;11.604;2023-11-19T05:21:54;1.70;;;0.50;;
4051;SDS011;2040;50.924;11.604;2023-11-19T05:24:19;0.50;;;0.50;;
4051;SDS011;2040;50.924;11.604;2023-11-19T05:26:45;0.50;;;0.50;;
4051;SDS011;2040;50.924;11.604;2023-11-19T05:29:11;0.63;;;0.63;;
4051;SDS011;2040;50.924;11.604;2023-11-19T05:31:37;0.50;;;0.50;;
4051;SDS011;2040;50.924;11.604;2023-11-19T05:34:03;0.60;;;0.60;;
4051;SDS011;2040;50.924;11.604;2023-11-19T05:36:29;0.50;;;0.50;;
4051;SDS011;2040;50.924;11.604;2023-11-19T05:38:55;0.50;;;0.50;;
4051;SDS011;2040;50.924;11.604;2023-11-19T05:41:20;0.70;;;0.60;;
4051;SDS011;2040;50.924;11.604;2023-11-19T05:43:46;0.40;;;0.40;;
4051;SDS011;2040;50.924;11.604;2023-11-19T05:46:11;1.37;;;0.50;;
4051;SDS011;2040;50.924;11.604;2023-11-19T05:48:38;0.47;;;0.47;;
4051;SDS011;2040;50.924;11.604;2023-11-19T05:51:04;0.40;;;0.40;;
4051;SDS011;2040;50.924;11.604;2023-11-19T05:53:30;0.77;;;0.60;;
4051;SDS011;2040;50.924;11.604;2023-11-19T05:55:56;0.60;;;0.60;;
4051;SDS011;2040;50.924;11.604;2023-11-19T05:58:26;0.73;;;0.60;;
4051;SDS011;2040;50.924;11.604;2023-11-19T06:00:54;0.67;;;0.60;;
4051;SDS011;2040;50.924;11.604;2023-11-19T06:03:20;0.50;;;0.50;;
4051;SDS011;2040;50.924;11.604;2023-11-19T06:05:49;1.03;;;0.60;;
4051;SDS011;2040;50.924;11.604;2023-11-19T06:08:15;3.07;;;0.80;;
4051;SDS011;2040;50.924;11.604;2023-11-19T06:10:41;0.50;;;0.50;;
4051;SDS011;2040;50.924;11.604;2023-11-19T06:13:08;0.50;;;0.50;;
4051;SDS011;2040;50.924;11.604;2023-11-19T06:15:36;0.60;;;0.53;;
4051;SDS011;2040;50.924;11.604;2023-11-19T06:18:02;0.50;;;0.50;;
4051;SDS011;2040;50.924;11.604;2023-11-19T06:20:32;0.80;;;0.70;;
4051;SDS011;2040;50.924;11.604;2023-11-19T06:22:58;0.80;;;0.80;;
4051;SDS011;2040;50.924;11.604;2023-11-19T06:25:24;0.60;;;0.60;;
4051;SDS011;2040;50.924;11.604;2023-11-19T06:27:50;0.93;;;0.70;;
4051;SDS011;2040;50.924;11.604;2023-11-19T06:30:16;0.53;;;0.53;;
4051;SDS011;2040;50.924;11.604;2023-11-19T06:32:42;0.43;;;0.43;;
4051;SDS011;2040;50.924;11.604;2023-11-19T06:35:07;0.60;;;0.60;;
4051;SDS011;2040;50.924;11.604;2023-11-19T06:37:34;1.27;;;0.80;;
4051;SDS011;2040;50.924;11.604;2023-11-19T06:40:06;0.60;;;0.60;;
4051;SDS011;2040;50.924;11.604;2023-11-19T06:42:34;0.90;;;0.67;;
4051;SDS011;2040;50.924;11.604;2023-11-19T06:45:00;0.63;;;0.60;;
4051;SDS011;2040;50.924;11.604;2023-11-19T06:47:26;0.60;;;0.60;;
4051;SDS011;2040;50.924;11.604;2023-11-19T06:49:55;0.80;;;0.70;;
4051;SDS011;2040;50.924;11.604;2023-11-19T06:52:21;2.80;;;0.70;;
4051;SDS011;2040;50.924;11.604;2023-11-19T06:54:49;0.60;;;0.60;;
4051;SDS011;2040;50.924;11.604;2023-11-19T06:57:15;0.60;;;0.60;;
4051;SDS011;2040;50.924;11.604;2023-11-19T06:59:41;3.80;;;1.40;;
4051;SDS011;2040;50.924;11.604;2023-11-19T07:02:07;2.37;;;0.67;;
4051;SDS011;2040;50.924;11.604;2023-11-19T07:04:33;2.00;;;0.60;;
4051;SDS011;2040;50.924;11.604;2023-11-19T07:06:59;1.07;;;0.83;;
4051;SDS011;2040;50.924;11.604;2023-11-19T07:09:25;0.60;;;0.60;;
4051;SDS011;2040;50.924;11.604;2023-11-19T07:11:51;4.20;;;0.80;;
4051;SDS011;2040;50.924;11.604;2023-11-19T07:14:17;0.60;;;0.60;;
4051;SDS011;2040;50.924;11.604;2023-11-19T07:16:43;0.90;;;0.70;;
4051;SDS011;2040;50.924;11.604;2023-11-19T07:19:09;1.27;;;0.80;;
4051;SDS011;2040;50.924;11.604;2023-11-19T07:21:35;1.20;;;0.90;;
4051;SDS011;2040;50.924;11.604;2023-11-19T07:24:04;2.00;;;0.80;;
4051;SDS011;2040;50.924;11.604;2023-11-19T07:26:30;0.80;;;0.70;;
4051;SDS011;2040;50.924;11.604;2023-11-19T07:28:56;0.70;;;0.70;;
4051;SDS011;2040;50.924;11.604;2023-11-19T07:31:22;0.73;;;0.60;;
4051;SDS011;2040;50.924;11.604;2023-11-19T07:33:49;0.80;;;0.80;;
4051;SDS011;2040;50.924;11.604;2023-11-19T07:36:15;2.00;;;1.27;;
4051;SDS011;2040;50.924;11.604;2023-11-19T07:38:41;0.80;;;0.80;;
4051;SDS011;2040;50.924;11.604;2023-11-19T07:41:07;1.20;;;1.10;;
4051;SDS011;2040;50.924;11.604;2023-11-19T07:43:39;1.20;;;0.70;;
4051;SDS011;2040;50.924;11.604;2023-11-19T07:46:10;1.07;;;0.77;;
4051;SDS011;2040;50.924;11.604;2023-11-19T07:48:38;5.43;;;0.90;;
4051;SDS011;2040;50.924;11.604;2023-11-19T07:51:04;2.70;;;0.90;;
4051;SDS011;2040;50.924;11.604;2023-11-19T07:53:30;1.43;;;0.80;;
4051;SDS011;2040;50.924;11.604;2023-11-19T07:55:56;1.03;;;0.90;;
4051;SDS011;2040;50.924;11.604;2023-11-19T07:58:21;1.70;;;0.70;;
4051;SDS011;2040;50.924;11.604;2023-11-19T08:00:47;2.30;;;1.00;;
4051;SDS011;2040;50.924;11.604;2023-11-19T08:03:12;1.73;;;0.80;;
4051;SDS011;2040;50.924;11.604;2023-11-19T08:05:38;1.20;;;0.73;;
4051;SDS011;2040;50.924;11.604;2023-11-19T08:08:04;6.87;;;1.23;;
4051;SDS011;2040;50.924;11.604;2023-11-19T08:10:30;0.80;;;0.60;;
4051;SDS011;2040;50.924;11.604;2023-11-19T08:12:55;0.60;;;0.60;;
4051;SDS011;2040;50.924;11.604;2023-11-19T08:15:21;2.80;;;0.83;;
4051;SDS011;2040;50.924;11.604;2023-11-19T08:17:46;4.90;;;0.80;;
4051;SDS011;2040;50.924;11.604;2023-11-19T08:20:12;0.80;;;0.80;;
4051;SDS011;2040;50.924;11.604;2023-11-19T08:22:38;1.27;;;1.00;;
4051;SDS011;2040;50.924;11.604;2023-11-19T08:25:07;1.13;;;0.90;;
4051;SDS011;2040;50.924;11.604;2023-11-19T08:27:33;4.23;;;1.20;;
4051;SDS011;2040;50.924;11.604;2023-11-19T08:29:59;6.80;;;1.10;;
4051;SDS011;2040;50.924;11.604;2023-11-19T08:32:25;1.20;;;1.10;;
4051;SDS011;2040;50.924;11.604;2023-11-19T08:34:51;3.20;;;0.63;;
4051;SDS011;2040;50.924;11.604;2023-11-19T08:37:17;1.50;;;0.80;;
4051;SDS011;2040;50.924;11.604;2023-11-19T08:39:48;4.47;;;1.80;;
4051;SDS011;2040;50.924;11.604;2023-11-19T08:42:15;6.03;;;1.10;;
4051;SDS011;2040;50.924;11.604;2023-11-19T08:44:41;4.57;;;0.80;;
4051;SDS011;2040;50.924;11.604;2023-11-19T08:47:08;2.93;;;1.00;;
4051;SDS011;2040;50.924;11.604;2023-11-19T08:49:34;1.00;;;0.80;;
4051;SDS011;2040;50.924;11.604;2023-11-19T08:52:00;3.70;;;0.90;;
4051;SDS011;2040;50.924;11.604;2023-11-19T08:54:26;0.70;;;0.67;;
4051;SDS011;2040;50.924;11.604;2023-11-19T08:56:51;3.33;;;1.00;;
4051;SDS011;2040;50.924;11.604;2023-11-19T08:59:17;0.50;;;0.50;;
4051;SDS011;2040;50.924;11.604;2023-11-19T09:01:44;1.13;;;0.87;;
4051;SDS011;2040;50.924;11.604;2023-11-19T09:04:09;0.90;;;0.57;;
4051;SDS011;2040;50.924;11.604;2023-11-19T09:06:36;0.53;;;0.50;;
4051;SDS011;2040;50.924;11.604;2023-11-19T09:09:01;2.23;;;0.60;;
4051;SDS011;2040;50.924;11.604;2023-11-19T09:11:28;0.83;;;0.50;;
4051;SDS011;2040;50.924;11.604;2023-11-19T09:13:54;0.63;;;0.60;;
4051;SDS011;2040;50.924;11.604;2023-11-19T09:16:20;0.67;;;0.57;;
4051;SDS011;2040;50.924;11.604;2023-11-19T09:18:45;4.67;;;0.77;;
4051;SDS011;2040;50.924;11.604;2023-11-19T09:21:11;3.23;;;1.07;;
4051;SDS011;2040;50.924;11.604;2023-11-19T09:23:37;1.03;;;0.53;;
4051;SDS011;2040;50.924;11.604;2023-11-19T09:26:13;1.70;;;0.67;;
4051;SDS011;2040;50.924;11.604;2023-11-19T09:28:38;0.63;;;0.53;;
4051;SDS011;2040;50.924;11.604;2023-11-19T09:31:12;1.00;;;0.70;;
4051;SDS011;2040;50.924;11.604;2023-11-19T09:33:39;1.47;;;0.57;;
4051;SDS011;2040;50.924;11.604;2023-11-19T09:36:04;1.63;;;0.80;;
4051;SDS011;2040;50.924;11.604;2023-11-19T09:38:31;0.83;;;0.73;;
4051;SDS011;2040;50.924;11.604;2023-11-19T09:40:58;1.83;;;1.40;;
4051;SDS011;2040;50.924;11.604;2023-11-19T09:43:24;1.10;;;0.97;;
4051;SDS011;2040;50.924;11.604;2023-11-19T09:45:53;8.93;;;2.10;;
4051;SDS011;2040;50.924;11.604;2023-11-19T09:48:21;2.40;;;1.00;;
4051;SDS011;2040;50.924;11.604;2023-11-19T09:50:48;9.57;;;1.50;;
4051;SDS011;2040;50.924;11.604;2023-11-19T09:53:15;3.60;;;1.10;;
4051;SDS011;2040;50.924;11.604;2023-11-19T09:55:41;15.67;;;2.90;;
4051;SDS011;2040;50.924;11.604;2023-11-19T09:58:07;12.10;;;2.20;;
4051;SDS011;2040;50.924;11.604;2023-11-19T10:00:33;10.13;;;1.77;;
4051;SDS011;2040;50.924;11.604;2023-11-19T10:02:59;8.33;;;2.30;;
4051;SDS011;2040;50.924;11.604;2023-11-19T10:05:25;6.97;;;1.87;;
4051;SDS011;2040;50.924;11.604;2023-11-19T10:07:51;4.77;;;1.97;;
4051;SDS011;2040;50.924;11.604;2023-11-19T10:10:17;7.17;;;2.10;;
4051;SDS011;2040;50.924;11.604;2023-11-19T10:12:47;8.67;;;1.90;;
4051;SDS011;2040;50.924;11.604;2023-11-19T10:15:21;10.27;;;2.40;;
4051;SDS011;2040;50.924;11.604;2023-11-19T10:17:49;13.47;;;2.20;;
4051;SDS011;2040;50.924;11.604;2023-11-19T10:20:22;7.10;;;1.50;;
4051;SDS011;2040;50.924;11.604;2023-11-19T10:22:47;10.40;;;2.07;;
4051;SDS011;2040;50.924;11.604;2023-11-19T10:27:52;6.40;;;1.90;;
4051;SDS011;2040;50.924;11.604;2023-11-19T10:30:22;6.93;;;1.90;;
4051;SDS011;2040;50.924;11.604;2023-11-19T10:33:05;16.67;;;2.40;;
4051;SDS011;2040;50.924;11.604;2023-11-19T10:35:33;8.67;;;2.30;;
4051;SDS011;2040;50.924;11.604;2023-11-19T10:38:00;8.50;;;1.70;;
4051;SDS011;2040;50.924;11.604;2023-11-19T10:40:37;6.20;;;1.93;;
4051;SDS011;2040;50.924;11.604;2023-11-19T10:43:05;6.97;;;1.50;;
4051;SDS011;2040;50.924;11.604;2023-11-19T10:45:32;9.10;;;1.93;;
4051;SDS011;2040;50.924;11.604;2023-11-19T10:47:58;6.27;;;1.40;;
4051;SDS011;2040;50.924;11.604;2023-11-19T10:50:25;8.00;;;1.97;;
4051;SDS011;2040;50.924;11.604;2023-11-19T10:52:56;7.00;;;1.90;;
4051;SDS011;2040;50.924;11.604;2023-11-19T10:55:28;6.27;;;1.67;;
4051;SDS011;2040;50.924;11.604;2023-11-19T10:57:59;5.93;;;1.90;;
4051;SDS011;2040;50.924;11.604;2023-11-19T11:00:26;7.23;;;1.47;;
4051;SDS011;2040;50.924;11.604;2023-11-19T11:03:13;11.43;;;1.53;;
4051;SDS011;2040;50.924;11.604;2023-11-19T11:05:46;6.87;;;1.83;;
4051;SDS011;2040;50.924;11.604;2023-11-19T11:08:12;16.80;;;1.93;;
4051;SDS011;2040;50.924;11.604;2023-11-19T11:10:52;12.50;;;2.63;;
4051;SDS011;2040;50.924;11.604;2023-11-19T11:13:19;9.97;;;1.70;;
4051;SDS011;2040;50.924;11.604;2023-11-19T11:15:47;9.90;;;1.83;;
4051;SDS011;2040;50.924;11.604;2023-11-19T11:18:14;6.13;;;1.80;;
4051;SDS011;2040;50.924;11.604;2023-11-19T11:20:39;7.73;;;1.40;;
4051;SDS011;2040;50.924;11.604;2023-11-19T11:39:42;9.43;;;1.97;;
4051;SDS011;2040;50.924;11.604;2023-11-19T11:47:23;5.27;;;2.07;;
4051;SDS011;2040;50.924;11.604;2023-11-19T11:49:49;19.10;;;2.50;;
4051;SDS011;2040;50.924;11.604;2023-11-19T11:52:16;9.83;;;2.53;;
4051;SDS011;2040;50.924;11.604;2023-11-19T11:54:42;6.40;;;1.13;;
4051;SDS011;2040;50.924;11.604;2023-11-19T11:57:13;8.90;;;2.17;;
4051;SDS011;2040;50.924;11.604;2023-11-19T12:02:10;13.13;;;2.07;;
4051;SDS011;2040;50.924;11.604;2023-11-19T12:04:37;11.20;;;1.70;;
4051;SDS011;2040;50.924;11.604;2023-11-19T12:07:06;8.83;;;1.90;;
4051;SDS011;2040;50.924;11.604;2023-11-19T12:09:36;7.53;;;2.27;;
4051;SDS011;2040;50.924;11.604;2023-11-19T12:20:02;5.23;;;1.67;;
4051;SDS011;2040;50.924;11.604;2023-11-19T12:22:30;5.43;;;1.47;;
4051;SDS011;2040;50.924;11.604;2023-11-19T12:24:56;8.90;;;1.70;;
4051;SDS011;2040;50.924;11.604;2023-11-19T12:27:22;13.13;;;2.00;;
4051;SDS011;2040;50.924;11.604;2023-11-19T12:29:48;14.17;;;2.10;;
4051;SDS011;2040;50.924;11.604;2023-11-19T12:32:14;10.63;;;2.33;;
4051;SDS011;2040;50.924;11.604;2023-11-19T12:34:39;6.53;;;1.87;;
4051;SDS011;2040;50.924;11.604;2023-11-19T12:37:05;5.90;;;1.47;;
4051;SDS011;2040;50.924;11.604;2023-11-19T12:39:31;8.57;;;1.57;;
4051;SDS011;2040;50.924;11.604;2023-11-19T12:41:57;5.63;;;1.90;;
4051;SDS011;2040;50.924;11.604;2023-11-19T12:44:25;9.07;;;1.80;;
4051;SDS011;2040;50.924;11.604;2023-11-19T12:47:04;9.50;;;2.00;;
4051;SDS011;2040;50.924;11.604;2023-11-19T12:49:32;11.70;;;2.93;;
4051;SDS011;2040;50.924;11.604;2023-11-19T12:51:58;9.23;;;1.80;;
4051;SDS011;2040;50.924;11.604;2023-11-19T12:54:34;11.77;;;2.07;;
4051;SDS011;2040;50.924;11.604;2023-11-19T12:57:00;6.47;;;2.30;;
4051;SDS011;2040;50.924;11.604;2023-11-19T12:59:27;6.70;;;1.87;;
4051;SDS011;2040;50.924;11.604;2023-11-19T13:01:59;4.93;;;1.67;;
4051;SDS011;2040;50.924;11.604;2023-11-19T13:04:28;6.03;;;1.93;;
4051;SDS011;2040;50.924;11.604;2023-11-19T13:06:58;8.03;;;1.53;;
4051;SDS011;2040;50.924;11.604;2023-11-19T13:09:25;8.40;;;2.20;;
4051;SDS011;2040;50.924;11.604;2023-11-19T13:11:52;10.30;;;2.20;;
4051;SDS011;2040;50.924;11.604;2023-11-19T13:14:18;8.97;;;1.90;;
4051;SDS011;2040;50.924;11.604;2023-11-19T13:16:45;9.87;;;2.30;;
4051;SDS011;2040;50.924;11.604;2023-11-19T13:19:12;8.60;;;1.60;;
4051;SDS011;2040;50.924;11.604;2023-11-19T13:21:38;6.47;;;1.63;;
4051;SDS011;2040;50.924;11.604;2023-11-19T13:24:05;7.20;;;1.57;;
4051;SDS011;2040;50.924;11.604;2023-11-19T13:26:31;6.40;;;1.70;;
4051;SDS011;2040;50.924;11.604;2023-11-19T13:28:57;4.33;;;1.40;;
4051;SDS011;2040;50.924;11.604;2023-11-19T13:31:22;3.80;;;1.30;;
4051;SDS011;2040;50.924;11.604;2023-11-19T13:33:48;6.33;;;1.63;;
4051;SDS011;2040;50.924;11.604;2023-11-19T13:36:14;10.77;;;1.83;;
4051;SDS011;2040;50.924;11.604;2023-11-19T13:38:39;5.00;;;1.70;;
4051;SDS011;2040;50.924;11.604;2023-11-19T13:41:09;15.77;;;2.17;;
4051;SDS011;2040;50.924;11.604;2023-11-19T13:43:36;4.57;;;1.67;;
4051;SDS011;2040;50.924;11.604;2023-11-19T13:46:02;4.67;;;2.20;;
4051;SDS011;2040;50.924;11.604;2023-11-19T13:48:28;4.20;;;1.67;;
4051;SDS011;2040;50.924;11.604;2023-11-19T13:50:54;8.70;;;2.00;;
4051;SDS011;2040;50.924;11.604;2023-11-19T13:53:21;5.83;;;1.80;;
4051;SDS011;2040;50.924;11.604;2023-11-19T13:55:48;5.40;;;1.77;;
4051;SDS011;2040;50.924;11.604;2023-11-19T13:58:13;7.97;;;2.00;;
4051;SDS011;2040;50.924;11.604;2023-11-19T14:00:39;7.70;;;1.47;;
4051;SDS011;2040;50.924;11.604;2023-11-19T14:03:07;11.13;;;2.33;;
4051;SDS011;2040;50.924;11.604;2023-11-19T14:05:32;12.40;;;1.70;;
4051;SDS011;2040;50.924;11.604;2023-11-19T14:07:58;15.30;;;1.40;;
4051;SDS011;2040;50.924;11.604;2023-11-19T14:10:24;7.40;;;1.60;;
4051;SDS011;2040;50.924;11.604;2023-11-19T14:12:49;8.73;;;1.73;;
4051;SDS011;2040;50.924;11.604;2023-11-19T14:15:15;8.93;;;1.80;;
4051;SDS011;2040;50.924;11.604;2023-11-19T14:17:44;4.60;;;2.03;;
4051;SDS011;2040;50.924;11.604;2023-11-19T14:20:10;7.73;;;1.93;;
4051;SDS011;2040;50.924;11.604;2023-11-19T14:22:40;9.47;;;3.10;;
4051;SDS011;2040;50.924;11.604;2023-11-19T14:25:09;8.23;;;1.90;;
4051;SDS011;2040;50.924;11.604;2023-11-19T14:27:36;10.47;;;2.40;;
4051;SDS011;2040;50.924;11.604;2023-11-19T14:30:06;11.60;;;2.80;;
4051;SDS011;2040;50.924;11.604;2023-11-19T14:32:33;8.47;;;2.10;;
4051;SDS011;2040;50.924;11.604;2023-11-19T14:35:00;19.03;;;2.30;;
4051;SDS011;2040;50.924;11.604;2023-11-19T14:37:25;8.20;;;2.17;;
4051;SDS011;2040;50.924;11.604;2023-11-19T14:39:51;4.90;;;2.00;;
4051;SDS011;2040;50.924;11.604;2023-11-19T14:42:17;4.80;;;1.67;;
4051;SDS011;2040;50.924;11.604;2023-11-19T14:44:43;10.13;;;1.97;;
4051;SDS011;2040;50.924;11.604;2023-11-19T14:47:09;9.53;;;1.60;;
4051;SDS011;2040;50.924;11.604;2023-11-19T14:49:35;9.57;;;1.90;;
4051;SDS011;2040;50.924;11.604;2023-11-19T14:52:02;6.43;;;1.83;;
4051;SDS011;2040;50.924;11.604;2023-11-19T14:54:28;9.13;;;2.57;;
4051;SDS011;2040;50.924;11.604;2023-11-19T14:56:54;10.10;;;3.40;;
4051;SDS011;2040;50.924;11.604;2023-11-19T14:59:19;10.67;;;3.17;;
4051;SDS011;2040;50.924;11.604;2023-11-19T15:01:45;5.57;;;2.00;;
4051;SDS011;2040;50.924;11.604;2023-11-19T15:04:11;14.87;;;3.00;;
4051;SDS011;2040;50.924;11.604;2023-11-19T15:06:37;12.80;;;3.07;;
4051;SDS011;2040;50.924;11.604;2023-11-19T15:09:03;8.70;;;2.73;;
4051;SDS011;2040;50.924;11.604;2023-11-19T15:11:29;12.17;;;2.43;;
4051;SDS011;2040;50.924;11.604;2023-11-19T15:13:55;12.10;;;2.40;;
4051;SDS011;2040;50.924;11.604;2023-11-19T15:16:21;11.20;;;2.80;;
4051;SDS011;2040;50.924;11.604;2023-11-19T15:18:56;12.43;;;2.50;;
4051;SDS011;2040;50.924;11.604;2023-11-19T15:21:24;9.00;;;1.70;;
4051;SDS011;2040;50.924;11.604;2023-11-19T15:23:51;9.30;;;1.97;;
4051;SDS011;2040;50.924;11.604;2023-11-19T15:26:17;17.30;;;2.33;;
4051;SDS011;2040;50.924;11.604;2023-11-19T15:28:43;3.87;;;1.33;;
4051;SDS011;2040;50.924;11.604;2023-11-19T15:31:08;11.40;;;2.17;;
4051;SDS011;2040;50.924;11.604;2023-11-19T15:33:35;11.33;;;2.90;;
4051;SDS011;2040;50.924;11.604;2023-11-19T15:36:00;15.30;;;2.47;;